sensor_id;sensor_type;location;lat;lon;timestamp;P1;durP1;ratioP1;P2;durP2;ratioP2
13457;SDS011;6801;53.018;11.560;2023-11-18T00:00:23;11.50;;;7.65;;
13457;SDS011;6801;53.018;11.560;2023-11-18T00:02:50;11.88;;;7.22;;
13457;SDS011;6801;53.018;11.560;2023-11-18T00:05:18;10.00;;;6.22;;
13457;SDS011;6801;53.018;11.560;2023-11-18T00:07:46;14.18;;;7.20;;
13457;SDS011;6801;53.018;11.560;2023-11-18T00:10:13;12.55;;;7.93;;
13457;SDS011;6801;53.018;11.560;2023-11-18T00:12:40;9.32;;;5.18;;
13457;SDS011;6801;53.018;11.560;2023-11-18T00:15:08;11.73;;;7.28;;
13457;SDS011;6801;53.018;11.560;2023-11-18T00:17:35;11.43;;;6.75;;
13457;SDS011;6801;53.018;11.560;2023-11-18T00:20:03;11.43;;;7.28;;
13457;SDS011;6801;53.018;11.560;2023-11-18T00:22:35;12.13;;;6.82;;
13457;SDS011;6801;53.018;11.560;2023-11-18T00:25:03;10.70;;;7.55;;
13457;SDS011;6801;53.018;11.560;2023-11-18T00:27:32;13.13;;;7.93;;
13457;SDS011;6801;53.018;11.560;2023-11-18T00:30:01;11.07;;;7.38;;
13457;SDS011;6801;53.018;11.560;2023-11-18T00:32:30;11.70;;;7.10;;
13457;SDS011;6801;53.018;11.560;2023-11-18T00:34:57;14.23;;;8.05;;
13457;SDS011;6801;53.018;11.560;2023-11-18T00:37:26;14.40;;;8.18;;
13457;SDS011;6801;53.018;11.560;2023-11-18T00:39:54;11.95;;;7.93;;
13457;SDS011;6801;53.018;11.560;2023-11-18T00:42:22;14.23;;;8.55;;
13457;SDS011;6801;53.018;11.560;2023-11-18T00:44:49;12.55;;;7.88;;
13457;SDS011;6801;53.018;11.560;2023-11-18T00:47:16;11.68;;;8.05;;
13457;SDS011;6801;53.018;11.560;2023-11-18T00:49:44;15.65;;;8.70;;
13457;SDS011;6801;53.018;11.560;2023-11-18T00:52:11;12.77;;;8.30;;
13457;SDS011;6801;53.018;11.560;2023-11-18T00:54:38;12.27;;;8.25;;
13457;SDS011;6801;53.018;11.560;2023-11-18T00:57:06;15.27;;;8.60;;
13457;SDS011;6801;53.018;11.560;2023-11-18T00:59:33;14.10;;;8.07;;
13457;SDS011;6801;53.018;11.560;2023-11-18T01:02:00;15.32;;;8.80;;
13457;SDS011;6801;53.018;11.560;2023-11-18T01:04:29;13.13;;;8.95;;
13457;SDS011;6801;53.018;11.560;2023-11-18T01:06:58;14.50;;;9.43;;
13457;SDS011;6801;53.018;11.560;2023-11-18T01:09:25;17.95;;;9.82;;
13457;SDS011;6801;53.018;11.560;2023-11-18T01:11:53;14.73;;;9.43;;
13457;SDS011;6801;53.018;11.560;2023-11-18T01:14:21;15.70;;;9.98;;
13457;SDS011;6801;53.018;11.560;2023-11-18T01:16:49;13.10;;;8.68;;
13457;SDS011;6801;53.018;11.560;2023-11-18T01:19:16;14.07;;;8.82;;
13457;SDS011;6801;53.018;11.560;2023-11-18T01:21:44;15.38;;;9.35;;
13457;SDS011;6801;53.018;11.560;2023-11-18T01:24:11;15.30;;;9.43;;
13457;SDS011;6801;53.018;11.560;2023-11-18T01:26:39;14.95;;;9.32;;
13457;SDS011;6801;53.018;11.560;2023-11-18T01:29:06;13.80;;;8.80;;
13457;SDS011;6801;53.018;11.560;2023-11-18T01:31:34;14.75;;;9.55;;
13457;SDS011;6801;53.018;11.560;2023-11-18T01:34:01;16.73;;;10.35;;
13457;SDS011;6801;53.018;11.560;2023-11-18T01:36:30;11.65;;;7.75;;
13457;SDS011;6801;53.018;11.560;2023-11-18T01:38:57;14.43;;;8.93;;
13457;SDS011;6801;53.018;11.560;2023-11-18T01:41:25;13.95;;;8.75;;
13457;SDS011;6801;53.018;11.560;2023-11-18T01:43:52;12.88;;;8.63;;
13457;SDS011;6801;53.018;11.560;2023-11-18T01:46:19;15.73;;;8.23;;
13457;SDS011;6801;53.018;11.560;2023-11-18T01:48:50;14.80;;;9.18;;
13457;SDS011;6801;53.018;11.560;2023-11-18T01:51:18;15.07;;;9.37;;
13457;SDS011;6801;53.018;11.560;2023-11-18T01:53:46;14.45;;;8.75;;
13457;SDS011;6801;53.018;11.560;2023-11-18T01:56:15;12.75;;;8.07;;
13457;SDS011;6801;53.018;11.560;2023-11-18T01:58:42;13.43;;;8.27;;
13457;SDS011;6801;53.018;11.560;2023-11-18T02:01:09;14.57;;;9.02;;
13457;SDS011;6801;53.018;11.560;2023-11-18T02:03:36;14.65;;;8.82;;
13457;SDS011;6801;53.018;11.560;2023-11-18T02:06:09;14.98;;;9.15;;
13457;SDS011;6801;53.018;11.560;2023-11-18T02:08:37;14.75;;;8.48;;
13457;SDS011;6801;53.018;11.560;2023-11-18T02:11:10;16.25;;;9.40;;
13457;SDS011;6801;53.018;11.560;2023-11-18T02:13:44;12.27;;;8.07;;
13457;SDS011;6801;53.018;11.560;2023-11-18T02:16:14;11.55;;;7.90;;
13457;SDS011;6801;53.018;11.560;2023-11-18T02:18:42;16.90;;;8.73;;
13457;SDS011;6801;53.018;11.560;2023-11-18T02:21:12;12.60;;;8.68;;
13457;SDS011;6801;53.018;11.560;2023-11-18T02:23:40;15.07;;;8.25;;
13457;SDS011;6801;53.018;11.560;2023-11-18T02:26:10;13.27;;;8.23;;
13457;SDS011;6801;53.018;11.560;2023-11-18T02:28:37;13.48;;;7.93;;
13457;SDS011;6801;53.018;11.560;2023-11-18T02:31:08;12.88;;;7.88;;
13457;SDS011;6801;53.018;11.560;2023-11-18T02:33:44;11.85;;;7.25;;
13457;SDS011;6801;53.018;11.560;2023-11-18T02:36:18;14.68;;;8.65;;
13457;SDS011;6801;53.018;11.560;2023-11-18T02:38:57;14.90;;;9.10;;
13457;SDS011;6801;53.018;11.560;2023-11-18T02:41:27;14.40;;;7.95;;
13457;SDS011;6801;53.018;11.560;2023-11-18T02:43:54;13.77;;;8.88;;
13457;SDS011;6801;53.018;11.560;2023-11-18T02:46:23;15.57;;;9.73;;
13457;SDS011;6801;53.018;11.560;2023-11-18T02:48:53;13.77;;;8.00;;
13457;SDS011;6801;53.018;11.560;2023-11-18T02:51:20;16.83;;;9.02;;
13457;SDS011;6801;53.018;11.560;2023-11-18T02:53:47;14.80;;;9.45;;
13457;SDS011;6801;53.018;11.560;2023-11-18T02:56:14;15.70;;;9.63;;
13457;SDS011;6801;53.018;11.560;2023-11-18T02:58:45;14.23;;;9.35;;
13457;SDS011;6801;53.018;11.560;2023-11-18T03:01:12;17.83;;;10.65;;
13457;SDS011;6801;53.018;11.560;2023-11-18T03:03:39;15.73;;;9.88;;
13457;SDS011;6801;53.018;11.560;2023-11-18T03:06:08;14.75;;;9.65;;
13457;SDS011;6801;53.018;11.560;2023-11-18T03:08:36;15.23;;;9.63;;
13457;SDS011;6801;53.018;11.560;2023-11-18T03:11:03;15.90;;;8.65;;
13457;SDS011;6801;53.018;11.560;2023-11-18T03:13:34;15.02;;;8.63;;
13457;SDS011;6801;53.018;11.560;2023-11-18T03:16:02;14.95;;;9.27;;
13457;SDS011;6801;53.018;11.560;2023-11-18T03:18:36;15.25;;;9.45;;
13457;SDS011;6801;53.018;11.560;2023-11-18T03:21:05;15.38;;;8.93;;
13457;SDS011;6801;53.018;11.560;2023-11-18T03:23:32;15.75;;;9.43;;
13457;SDS011;6801;53.018;11.560;2023-11-18T03:26:00;15.63;;;9.25;;
13457;SDS011;6801;53.018;11.560;2023-11-18T03:28:27;15.20;;;9.98;;
13457;SDS011;6801;53.018;11.560;2023-11-18T03:30:54;16.38;;;10.07;;
13457;SDS011;6801;53.018;11.560;2023-11-18T03:33:23;13.20;;;8.88;;
13457;SDS011;6801;53.018;11.560;2023-11-18T03:35:50;15.18;;;9.68;;
13457;SDS011;6801;53.018;11.560;2023-11-18T03:38:17;18.10;;;9.95;;
13457;SDS011;6801;53.018;11.560;2023-11-18T03:40:45;14.00;;;9.57;;
13457;SDS011;6801;53.018;11.560;2023-11-18T03:43:12;18.75;;;10.88;;
13457;SDS011;6801;53.018;11.560;2023-11-18T03:45:39;14.48;;;8.70;;
13457;SDS011;6801;53.018;11.560;2023-11-18T03:48:07;16.15;;;10.40;;
13457;SDS011;6801;53.018;11.560;2023-11-18T03:50:40;15.48;;;9.50;;
13457;SDS011;6801;53.018;11.560;2023-11-18T03:53:10;17.70;;;10.07;;
13457;SDS011;6801;53.018;11.560;2023-11-18T03:55:37;15.40;;;9.65;;
13457;SDS011;6801;53.018;11.560;2023-11-18T03:58:04;15.07;;;9.30;;
13457;SDS011;6801;53.018;11.560;2023-11-18T04:00:32;15.23;;;9.77;;
13457;SDS011;6801;53.018;11.560;2023-11-18T04:02:59;17.75;;;9.63;;
13457;SDS011;6801;53.018;11.560;2023-11-18T04:05:26;15.10;;;9.60;;
13457;SDS011;6801;53.018;11.560;2023-11-18T04:07:55;17.02;;;9.30;;
13457;SDS011;6801;53.018;11.560;2023-11-18T04:10:22;17.88;;;10.23;;
13457;SDS011;6801;53.018;11.560;2023-11-18T04:12:50;15.68;;;9.73;;
13457;SDS011;6801;53.018;11.560;2023-11-18T04:15:17;15.95;;;10.02;;
13457;SDS011;6801;53.018;11.560;2023-11-18T04:17:44;18.30;;;10.70;;
13457;SDS011;6801;53.018;11.560;2023-11-18T04:20:11;17.15;;;10.95;;
13457;SDS011;6801;53.018;11.560;2023-11-18T04:22:41;16.35;;;10.98;;
13457;SDS011;6801;53.018;11.560;2023-11-18T04:25:09;20.67;;;11.35;;
13457;SDS011;6801;53.018;11.560;2023-11-18T04:27:37;15.82;;;10.52;;
13457;SDS011;6801;53.018;11.560;2023-11-18T04:30:05;18.38;;;10.75;;
13457;SDS011;6801;53.018;11.560;2023-11-18T04:32:33;16.33;;;10.85;;
13457;SDS011;6801;53.018;11.560;2023-11-18T04:35:01;16.40;;;11.30;;
13457;SDS011;6801;53.018;11.560;2023-11-18T04:39:58;15.98;;;10.40;;
13457;SDS011;6801;53.018;11.560;2023-11-18T04:42:27;18.20;;;11.45;;
13457;SDS011;6801;53.018;11.560;2023-11-18T04:44:55;15.15;;;10.20;;
13457;SDS011;6801;53.018;11.560;2023-11-18T04:47:22;16.17;;;10.80;;
13457;SDS011;6801;53.018;11.560;2023-11-18T04:49:50;16.60;;;11.13;;
13457;SDS011;6801;53.018;11.560;2023-11-18T04:52:18;17.05;;;11.40;;
13457;SDS011;6801;53.018;11.560;2023-11-18T04:54:45;16.15;;;10.73;;
13457;SDS011;6801;53.018;11.560;2023-11-18T04:57:13;17.70;;;11.18;;
13457;SDS011;6801;53.018;11.560;2023-11-18T04:59:41;17.75;;;11.25;;
13457;SDS011;6801;53.018;11.560;2023-11-18T05:02:09;18.90;;;11.18;;
13457;SDS011;6801;53.018;11.560;2023-11-18T05:04:36;17.88;;;11.82;;
13457;SDS011;6801;53.018;11.560;2023-11-18T05:07:03;16.45;;;11.32;;
13457;SDS011;6801;53.018;11.560;2023-11-18T05:09:31;17.20;;;11.23;;
13457;SDS011;6801;53.018;11.560;2023-11-18T05:12:00;17.25;;;11.30;;
13457;SDS011;6801;53.018;11.560;2023-11-18T05:14:27;20.30;;;11.20;;
13457;SDS011;6801;53.018;11.560;2023-11-18T05:16:56;18.42;;;11.63;;
13457;SDS011;6801;53.018;11.560;2023-11-18T05:19:23;19.98;;;12.10;;
13457;SDS011;6801;53.018;11.560;2023-11-18T05:21:51;17.40;;;10.60;;
13457;SDS011;6801;53.018;11.560;2023-11-18T05:24:19;15.73;;;9.98;;
13457;SDS011;6801;53.018;11.560;2023-11-18T05:26:46;16.73;;;11.43;;
13457;SDS011;6801;53.018;11.560;2023-11-18T05:29:13;18.38;;;11.50;;
13457;SDS011;6801;53.018;11.560;2023-11-18T05:31:42;17.63;;;11.75;;
13457;SDS011;6801;53.018;11.560;2023-11-18T05:34:11;16.23;;;10.82;;
13457;SDS011;6801;53.018;11.560;2023-11-18T05:36:38;22.55;;;11.38;;
13457;SDS011;6801;53.018;11.560;2023-11-18T05:39:05;18.08;;;11.73;;
13457;SDS011;6801;53.018;11.560;2023-11-18T05:41:34;18.35;;;11.15;;
13457;SDS011;6801;53.018;11.560;2023-11-18T05:44:05;16.38;;;11.18;;
13457;SDS011;6801;53.018;11.560;2023-11-18T05:46:34;17.00;;;11.20;;
13457;SDS011;6801;53.018;11.560;2023-11-18T05:49:02;16.38;;;10.68;;
13457;SDS011;6801;53.018;11.560;2023-11-18T05:51:34;20.83;;;10.75;;
13457;SDS011;6801;53.018;11.560;2023-11-18T05:54:01;14.32;;;9.25;;
13457;SDS011;6801;53.018;11.560;2023-11-18T05:56:28;18.50;;;9.95;;
13457;SDS011;6801;53.018;11.560;2023-11-18T05:58:56;15.68;;;10.23;;
13457;SDS011;6801;53.018;11.560;2023-11-18T06:01:23;16.50;;;10.65;;
13457;SDS011;6801;53.018;11.560;2023-11-18T06:03:52;16.23;;;9.65;;
13457;SDS011;6801;53.018;11.560;2023-11-18T06:06:19;14.95;;;9.68;;
13457;SDS011;6801;53.018;11.560;2023-11-18T06:08:48;17.08;;;11.80;;
13457;SDS011;6801;53.018;11.560;2023-11-18T06:11:16;17.40;;;11.00;;
13457;SDS011;6801;53.018;11.560;2023-11-18T06:13:44;16.88;;;11.23;;
13457;SDS011;6801;53.018;11.560;2023-11-18T06:16:13;15.57;;;10.15;;
13457;SDS011;6801;53.018;11.560;2023-11-18T06:18:41;18.13;;;10.30;;
13457;SDS011;6801;53.018;11.560;2023-11-18T06:21:13;17.53;;;10.00;;
13457;SDS011;6801;53.018;11.560;2023-11-18T06:23:41;15.07;;;9.45;;
13457;SDS011;6801;53.018;11.560;2023-11-18T06:26:10;18.23;;;10.70;;
13457;SDS011;6801;53.018;11.560;2023-11-18T06:28:38;15.45;;;9.70;;
13457;SDS011;6801;53.018;11.560;2023-11-18T06:31:06;17.35;;;9.77;;
13457;SDS011;6801;53.018;11.560;2023-11-18T06:33:37;16.08;;;10.38;;
13457;SDS011;6801;53.018;11.560;2023-11-18T06:36:08;16.92;;;10.60;;
13457;SDS011;6801;53.018;11.560;2023-11-18T06:38:36;16.73;;;10.10;;
13457;SDS011;6801;53.018;11.560;2023-11-18T06:41:04;17.65;;;10.60;;
13457;SDS011;6801;53.018;11.560;2023-11-18T06:43:36;16.83;;;10.70;;
13457;SDS011;6801;53.018;11.560;2023-11-18T06:46:17;16.88;;;10.23;;
13457;SDS011;6801;53.018;11.560;2023-11-18T06:48:47;14.77;;;9.73;;
13457;SDS011;6801;53.018;11.560;2023-11-18T06:51:15;16.60;;;10.55;;
13457;SDS011;6801;53.018;11.560;2023-11-18T06:53:42;16.08;;;10.35;;
13457;SDS011;6801;53.018;11.560;2023-11-18T06:56:09;16.60;;;10.82;;
13457;SDS011;6801;53.018;11.560;2023-11-18T06:58:38;16.02;;;10.35;;
13457;SDS011;6801;53.018;11.560;2023-11-18T07:01:08;14.20;;;9.25;;
13457;SDS011;6801;53.018;11.560;2023-11-18T07:03:35;16.23;;;10.15;;
13457;SDS011;6801;53.018;11.560;2023-11-18T07:06:02;15.70;;;9.82;;
13457;SDS011;6801;53.018;11.560;2023-11-18T07:08:31;14.55;;;10.05;;
13457;SDS011;6801;53.018;11.560;2023-11-18T07:10:58;16.55;;;9.95;;
13457;SDS011;6801;53.018;11.560;2023-11-18T07:13:26;15.80;;;10.20;;
13457;SDS011;6801;53.018;11.560;2023-11-18T07:15:55;15.15;;;10.10;;
13457;SDS011;6801;53.018;11.560;2023-11-18T07:18:22;15.50;;;10.27;;
13457;SDS011;6801;53.018;11.560;2023-11-18T07:20:49;16.17;;;10.27;;
13457;SDS011;6801;53.018;11.560;2023-11-18T07:23:17;15.93;;;9.65;;
13457;SDS011;6801;53.018;11.560;2023-11-18T07:25:44;14.50;;;9.75;;
13457;SDS011;6801;53.018;11.560;2023-11-18T07:28:12;16.63;;;9.55;;
13457;SDS011;6801;53.018;11.560;2023-11-18T07:30:41;14.27;;;9.13;;
13457;SDS011;6801;53.018;11.560;2023-11-18T07:33:14;16.17;;;9.15;;
13457;SDS011;6801;53.018;11.560;2023-11-18T07:35:41;15.63;;;9.60;;
13457;SDS011;6801;53.018;11.560;2023-11-18T07:38:08;14.07;;;9.13;;
13457;SDS011;6801;53.018;11.560;2023-11-18T07:40:35;15.88;;;9.57;;
13457;SDS011;6801;53.018;11.560;2023-11-18T07:43:07;15.88;;;10.30;;
13457;SDS011;6801;53.018;11.560;2023-11-18T07:45:35;14.60;;;9.35;;
13457;SDS011;6801;53.018;11.560;2023-11-18T07:48:04;14.73;;;9.55;;
13457;SDS011;6801;53.018;11.560;2023-11-18T07:50:34;14.27;;;9.18;;
13457;SDS011;6801;53.018;11.560;2023-11-18T07:53:01;18.77;;;9.73;;
13457;SDS011;6801;53.018;11.560;2023-11-18T07:55:29;15.38;;;9.75;;
13457;SDS011;6801;53.018;11.560;2023-11-18T07:57:59;16.27;;;9.80;;
13457;SDS011;6801;53.018;11.560;2023-11-18T08:00:26;17.27;;;9.73;;
13457;SDS011;6801;53.018;11.560;2023-11-18T08:02:56;14.10;;;9.43;;
13457;SDS011;6801;53.018;11.560;2023-11-18T08:05:25;14.20;;;9.50;;
13457;SDS011;6801;53.018;11.560;2023-11-18T08:07:54;14.73;;;9.13;;
13457;SDS011;6801;53.018;11.560;2023-11-18T08:10:21;16.63;;;9.70;;
13457;SDS011;6801;53.018;11.560;2023-11-18T08:12:50;14.18;;;8.30;;
13457;SDS011;6801;53.018;11.560;2023-11-18T08:15:19;14.35;;;9.25;;
13457;SDS011;6801;53.018;11.560;2023-11-18T08:17:46;16.60;;;9.45;;
13457;SDS011;6801;53.018;11.560;2023-11-18T08:20:14;17.38;;;8.77;;
13457;SDS011;6801;53.018;11.560;2023-11-18T08:22:41;15.82;;;9.48;;
13457;SDS011;6801;53.018;11.560;2023-11-18T08:25:10;15.57;;;9.13;;
13457;SDS011;6801;53.018;11.560;2023-11-18T08:27:38;16.17;;;9.68;;
13457;SDS011;6801;53.018;11.560;2023-11-18T08:30:06;14.75;;;9.65;;
13457;SDS011;6801;53.018;11.560;2023-11-18T08:32:36;17.85;;;9.40;;
13457;SDS011;6801;53.018;11.560;2023-11-18T08:35:04;15.95;;;9.43;;
13457;SDS011;6801;53.018;11.560;2023-11-18T08:37:33;16.50;;;8.45;;
13457;SDS011;6801;53.018;11.560;2023-11-18T08:40:01;15.75;;;9.45;;
13457;SDS011;6801;53.018;11.560;2023-11-18T08:42:30;14.45;;;8.13;;
13457;SDS011;6801;53.018;11.560;2023-11-18T08:44:57;16.10;;;9.45;;
13457;SDS011;6801;53.018;11.560;2023-11-18T08:47:24;13.63;;;8.63;;
13457;SDS011;6801;53.018;11.560;2023-11-18T08:49:51;17.23;;;9.07;;
13457;SDS011;6801;53.018;11.560;2023-11-18T08:52:20;12.73;;;7.85;;
13457;SDS011;6801;53.018;11.560;2023-11-18T08:54:48;16.20;;;9.25;;
13457;SDS011;6801;53.018;11.560;2023-11-18T08:57:44;16.38;;;9.38;;
13457;SDS011;6801;53.018;11.560;2023-11-18T09:00:17;17.15;;;10.07;;
13457;SDS011;6801;53.018;11.560;2023-11-18T09:02:58;14.77;;;8.93;;
13457;SDS011;6801;53.018;11.560;2023-11-18T09:05:26;18.63;;;10.07;;
13457;SDS011;6801;53.018;11.560;2023-11-18T09:07:56;13.45;;;8.25;;
13457;SDS011;6801;53.018;11.560;2023-11-18T09:10:25;14.93;;;9.35;;
13457;SDS011;6801;53.018;11.560;2023-11-18T09:12:55;17.27;;;9.05;;
13457;SDS011;6801;53.018;11.560;2023-11-18T09:15:22;14.75;;;8.95;;
13457;SDS011;6801;53.018;11.560;2023-11-18T09:17:50;15.07;;;8.77;;
13457;SDS011;6801;53.018;11.560;2023-11-18T09:20:18;17.88;;;9.40;;
13457;SDS011;6801;53.018;11.560;2023-11-18T09:22:47;15.70;;;9.02;;
13457;SDS011;6801;53.018;11.560;2023-11-18T09:25:14;18.17;;;9.55;;
13457;SDS011;6801;53.018;11.560;2023-11-18T09:27:42;14.65;;;8.77;;
13457;SDS011;6801;53.018;11.560;2023-11-18T09:30:11;14.95;;;9.45;;
13457;SDS011;6801;53.018;11.560;2023-11-18T09:32:40;13.63;;;8.77;;
13457;SDS011;6801;53.018;11.560;2023-11-18T09:35:07;16.17;;;9.00;;
13457;SDS011;6801;53.018;11.560;2023-11-18T09:37:37;18.30;;;8.90;;
13457;SDS011;6801;53.018;11.560;2023-11-18T09:40:06;15.90;;;8.35;;
13457;SDS011;6801;53.018;11.560;2023-11-18T09:42:37;16.25;;;8.85;;
13457;SDS011;6801;53.018;11.560;2023-11-18T09:45:05;16.67;;;9.48;;
13457;SDS011;6801;53.018;11.560;2023-11-18T09:47:42;14.70;;;9.10;;
13457;SDS011;6801;53.018;11.560;2023-11-18T09:50:14;18.00;;;8.98;;
13457;SDS011;6801;53.018;11.560;2023-11-18T09:52:47;14.70;;;9.02;;
13457;SDS011;6801;53.018;11.560;2023-11-18T09:55:21;15.05;;;8.57;;
13457;SDS011;6801;53.018;11.560;2023-11-18T09:57:55;18.38;;;10.35;;
13457;SDS011;6801;53.018;11.560;2023-11-18T10:00:29;21.52;;;13.00;;
13457;SDS011;6801;53.018;11.560;2023-11-18T10:03:00;18.85;;;10.80;;
13457;SDS011;6801;53.018;11.560;2023-11-18T10:05:27;20.15;;;9.90;;
13457;SDS011;6801;53.018;11.560;2023-11-18T10:07:55;17.40;;;10.20;;
13457;SDS011;6801;53.018;11.560;2023-11-18T10:10:23;17.00;;;10.18;;
13457;SDS011;6801;53.018;11.560;2023-11-18T10:12:58;15.27;;;9.98;;
13457;SDS011;6801;53.018;11.560;2023-11-18T10:15:25;17.90;;;10.40;;
13457;SDS011;6801;53.018;11.560;2023-11-18T10:20:42;17.92;;;9.95;;
13457;SDS011;6801;53.018;11.560;2023-11-18T10:23:11;15.68;;;10.38;;
13457;SDS011;6801;53.018;11.560;2023-11-18T10:25:45;16.65;;;9.95;;
13457;SDS011;6801;53.018;11.560;2023-11-18T10:28:26;18.75;;;11.30;;
13457;SDS011;6801;53.018;11.560;2023-11-18T10:30:53;16.95;;;9.13;;
13457;SDS011;6801;53.018;11.560;2023-11-18T10:33:23;17.98;;;10.73;;
13457;SDS011;6801;53.018;11.560;2023-11-18T10:35:57;19.38;;;11.18;;
13457;SDS011;6801;53.018;11.560;2023-11-18T10:38:29;21.13;;;11.82;;
13457;SDS011;6801;53.018;11.560;2023-11-18T10:40:57;19.65;;;12.45;;
13457;SDS011;6801;53.018;11.560;2023-11-18T10:43:26;21.05;;;10.25;;
13457;SDS011;6801;53.018;11.560;2023-11-18T10:46:04;17.55;;;9.93;;
13457;SDS011;6801;53.018;11.560;2023-11-18T10:48:37;17.50;;;10.73;;
13457;SDS011;6801;53.018;11.560;2023-11-18T10:51:08;17.38;;;10.60;;
13457;SDS011;6801;53.018;11.560;2023-11-18T10:53:38;17.80;;;10.18;;
13457;SDS011;6801;53.018;11.560;2023-11-18T10:56:16;16.00;;;10.00;;
13457;SDS011;6801;53.018;11.560;2023-11-18T10:58:49;17.40;;;9.52;;
13457;SDS011;6801;53.018;11.560;2023-11-18T11:01:26;15.05;;;9.80;;
13457;SDS011;6801;53.018;11.560;2023-11-18T11:03:54;16.13;;;10.15;;
13457;SDS011;6801;53.018;11.560;2023-11-18T11:06:27;15.52;;;8.85;;
13457;SDS011;6801;53.018;11.560;2023-11-18T11:08:55;16.42;;;9.05;;
13457;SDS011;6801;53.018;11.560;2023-11-18T11:11:24;15.23;;;8.45;;
13457;SDS011;6801;53.018;11.560;2023-11-18T11:13:53;13.48;;;8.13;;
13457;SDS011;6801;53.018;11.560;2023-11-18T11:16:28;13.00;;;8.43;;
13457;SDS011;6801;53.018;11.560;2023-11-18T11:19:00;12.10;;;7.93;;
13457;SDS011;6801;53.018;11.560;2023-11-18T11:21:36;11.68;;;6.63;;
13457;SDS011;6801;53.018;11.560;2023-11-18T11:24:20;10.32;;;7.03;;
13457;SDS011;6801;53.018;11.560;2023-11-18T11:27:01;9.98;;;6.20;;
13457;SDS011;6801;53.018;11.560;2023-11-18T11:29:50;13.00;;;6.95;;
13457;SDS011;6801;53.018;11.560;2023-11-18T11:32:24;10.75;;;6.47;;
13457;SDS011;6801;53.018;11.560;2023-11-18T11:34:56;11.68;;;6.88;;
13457;SDS011;6801;53.018;11.560;2023-11-18T11:37:34;10.45;;;6.47;;
13457;SDS011;6801;53.018;11.560;2023-11-18T11:40:03;11.38;;;7.13;;
13457;SDS011;6801;53.018;11.560;2023-11-18T11:42:34;8.57;;;5.95;;
13457;SDS011;6801;53.018;11.560;2023-11-18T11:45:02;10.52;;;6.05;;
13457;SDS011;6801;53.018;11.560;2023-11-18T11:47:33;9.20;;;6.40;;
13457;SDS011;6801;53.018;11.560;2023-11-18T11:50:10;9.38;;;5.85;;
13457;SDS011;6801;53.018;11.560;2023-11-18T11:52:51;11.02;;;6.78;;
13457;SDS011;6801;53.018;11.560;2023-11-18T11:55:26;10.00;;;5.93;;
13457;SDS011;6801;53.018;11.560;2023-11-18T11:58:04;9.43;;;5.72;;
13457;SDS011;6801;53.018;11.560;2023-11-18T12:00:51;9.48;;;5.90;;
13457;SDS011;6801;53.018;11.560;2023-11-18T12:03:21;9.82;;;7.43;;
13457;SDS011;6801;53.018;11.560;2023-11-18T12:05:49;9.02;;;6.10;;
13457;SDS011;6801;53.018;11.560;2023-11-18T12:08:18;11.38;;;7.95;;
13457;SDS011;6801;53.018;11.560;2023-11-18T12:10:50;8.88;;;5.53;;
13457;SDS011;6801;53.018;11.560;2023-11-18T12:13:18;5.45;;;3.55;;
13457;SDS011;6801;53.018;11.560;2023-11-18T12:15:49;5.82;;;3.53;;
13457;SDS011;6801;53.018;11.560;2023-11-18T12:18:22;5.63;;;3.17;;
13457;SDS011;6801;53.018;11.560;2023-11-18T12:20:50;5.28;;;2.70;;
13457;SDS011;6801;53.018;11.560;2023-11-18T12:25:50;4.97;;;2.95;;
13457;SDS011;6801;53.018;11.560;2023-11-18T12:28:21;4.88;;;2.65;;
13457;SDS011;6801;53.018;11.560;2023-11-18T12:30:53;4.45;;;2.88;;
13457;SDS011;6801;53.018;11.560;2023-11-18T12:36:44;4.97;;;2.28;;
13457;SDS011;6801;53.018;11.560;2023-11-18T12:39:46;4.10;;;2.40;;
13457;SDS011;6801;53.018;11.560;2023-11-18T12:42:49;3.53;;;2.38;;
13457;SDS011;6801;53.018;11.560;2023-11-18T12:45:43;4.95;;;2.92;;
13457;SDS011;6801;53.018;11.560;2023-11-18T12:48:25;4.85;;;2.70;;
13457;SDS011;6801;53.018;11.560;2023-11-18T12:50:57;3.45;;;2.38;;
13457;SDS011;6801;53.018;11.560;2023-11-18T12:53:25;4.57;;;2.55;;
13457;SDS011;6801;53.018;11.560;2023-11-18T12:55:55;4.22;;;2.35;;
13457;SDS011;6801;53.018;11.560;2023-11-18T12:58:24;6.63;;;2.95;;
13457;SDS011;6801;53.018;11.560;2023-11-18T13:00:51;6.47;;;3.22;;
13457;SDS011;6801;53.018;11.560;2023-11-18T13:03:18;4.97;;;2.80;;
13457;SDS011;6801;53.018;11.560;2023-11-18T13:05:45;6.78;;;3.55;;
13457;SDS011;6801;53.018;11.560;2023-11-18T13:08:13;9.50;;;3.72;;
13457;SDS011;6801;53.018;11.560;2023-11-18T13:10:41;6.57;;;3.38;;
13457;SDS011;6801;53.018;11.560;2023-11-18T13:13:11;7.15;;;3.75;;
13457;SDS011;6801;53.018;11.560;2023-11-18T13:15:42;7.53;;;3.83;;
13457;SDS011;6801;53.018;11.560;2023-11-18T13:18:10;6.68;;;3.75;;
13457;SDS011;6801;53.018;11.560;2023-11-18T13:20:37;5.93;;;3.58;;
13457;SDS011;6801;53.018;11.560;2023-11-18T13:23:08;6.88;;;3.80;;
13457;SDS011;6801;53.018;11.560;2023-11-18T13:28:04;6.10;;;3.40;;
13457;SDS011;6801;53.018;11.560;2023-11-18T13:30:33;5.95;;;4.00;;
13457;SDS011;6801;53.018;11.560;2023-11-18T13:33:01;6.07;;;3.92;;
13457;SDS011;6801;53.018;11.560;2023-11-18T13:35:28;7.25;;;4.13;;
13457;SDS011;6801;53.018;11.560;2023-11-18T13:37:55;9.85;;;3.55;;
13457;SDS011;6801;53.018;11.560;2023-11-18T13:40:23;7.10;;;4.10;;
13457;SDS011;6801;53.018;11.560;2023-11-18T13:43:00;8.10;;;4.05;;
13457;SDS011;6801;53.018;11.560;2023-11-18T13:45:30;5.78;;;3.45;;
13457;SDS011;6801;53.018;11.560;2023-11-18T13:47:59;7.90;;;3.70;;
13457;SDS011;6801;53.018;11.560;2023-11-18T13:50:27;5.25;;;3.10;;
13457;SDS011;6801;53.018;11.560;2023-11-18T13:52:55;5.93;;;3.47;;
13457;SDS011;6801;53.018;11.560;2023-11-18T13:55:22;6.47;;;3.30;;
13457;SDS011;6801;53.018;11.560;2023-11-18T13:57:53;4.53;;;2.70;;
13457;SDS011;6801;53.018;11.560;2023-11-18T14:00:21;6.45;;;3.13;;
13457;SDS011;6801;53.018;11.560;2023-11-18T14:02:52;4.80;;;2.35;;
13457;SDS011;6801;53.018;11.560;2023-11-18T14:05:23;4.72;;;2.78;;
13457;SDS011;6801;53.018;11.560;2023-11-18T14:07:51;3.85;;;2.63;;
13457;SDS011;6801;53.018;11.560;2023-11-18T14:10:21;4.30;;;2.17;;
13457;SDS011;6801;53.018;11.560;2023-11-18T14:12:59;7.97;;;3.15;;
13457;SDS011;6801;53.018;11.560;2023-11-18T14:15:28;5.63;;;3.00;;
13457;SDS011;6801;53.018;11.560;2023-11-18T14:17:55;4.70;;;2.90;;
13457;SDS011;6801;53.018;11.560;2023-11-18T14:20:24;5.88;;;2.47;;
13457;SDS011;6801;53.018;11.560;2023-11-18T14:22:51;3.33;;;2.10;;
13457;SDS011;6801;53.018;11.560;2023-11-18T14:25:19;3.85;;;1.88;;
13457;SDS011;6801;53.018;11.560;2023-11-18T14:27:49;6.53;;;2.73;;
13457;SDS011;6801;53.018;11.560;2023-11-18T14:30:16;5.35;;;3.80;;
13457;SDS011;6801;53.018;11.560;2023-11-18T14:32:44;6.45;;;3.30;;
13457;SDS011;6801;53.018;11.560;2023-11-18T14:35:12;6.20;;;3.85;;
13457;SDS011;6801;53.018;11.560;2023-11-18T14:37:43;11.07;;;4.43;;
13457;SDS011;6801;53.018;11.560;2023-11-18T14:40:11;23.60;;;9.27;;
13457;SDS011;6801;53.018;11.560;2023-11-18T14:42:39;19.88;;;8.73;;
13457;SDS011;6801;53.018;11.560;2023-11-18T14:45:08;12.75;;;6.25;;
13457;SDS011;6801;53.018;11.560;2023-11-18T14:47:35;7.65;;;3.05;;
13457;SDS011;6801;53.018;11.560;2023-11-18T14:50:02;7.03;;;2.97;;
13457;SDS011;6801;53.018;11.560;2023-11-18T14:52:30;6.82;;;2.72;;
13457;SDS011;6801;53.018;11.560;2023-11-18T14:54:59;7.95;;;2.83;;
13457;SDS011;6801;53.018;11.560;2023-11-18T14:57:26;4.93;;;2.25;;
13457;SDS011;6801;53.018;11.560;2023-11-18T14:59:54;4.25;;;2.50;;